sensor_id;sensor_type;location;lat;lon;timestamp;P1;durP1;ratioP1;P2;durP2;ratioP2
39882;SDS011;55824;52.220;21.040;2023-12-14T00:00:08;16.08;;;13.98;;
39882;SDS011;55824;52.220;21.040;2023-12-14T00:02:34;15.45;;;13.70;;
39882;SDS011;55824;52.220;21.040;2023-12-14T00:05:00;15.10;;;13.50;;
39882;SDS011;55824;52.220;21.040;2023-12-14T00:07:26;13.95;;;12.50;;
39882;SDS011;55824;52.220;21.040;2023-12-14T00:09:52;16.45;;;14.55;;
39882;SDS011;55824;52.220;21.040;2023-12-14T00:12:18;14.50;;;13.10;;
39882;SDS011;55824;52.220;21.040;2023-12-14T00:14:44;15.25;;;13.55;;
39882;SDS011;55824;52.220;21.040;2023-12-14T00:17:10;15.52;;;14.05;;
39882;SDS011;55824;52.220;21.040;2023-12-14T00:19:36;15.25;;;13.65;;
39882;SDS011;55824;52.220;21.040;2023-12-14T00:22:02;15.73;;;14.00;;
39882;SDS011;55824;52.220;21.040;2023-12-14T00:24:28;17.20;;;15.40;;
39882;SDS011;55824;52.220;21.040;2023-12-14T00:26:54;16.25;;;14.65;;
39882;SDS011;55824;52.220;21.040;2023-12-14T00:29:20;16.13;;;14.45;;
39882;SDS011;55824;52.220;21.040;2023-12-14T00:31:46;17.42;;;15.13;;
39882;SDS011;55824;52.220;21.040;2023-12-14T00:34:11;16.83;;;15.02;;
39882;SDS011;55824;52.220;21.040;2023-12-14T00:36:37;17.00;;;15.20;;
39882;SDS011;55824;52.220;21.040;2023-12-14T00:39:04;16.67;;;14.20;;
39882;SDS011;55824;52.220;21.040;2023-12-14T00:41:30;16.70;;;14.70;;
39882;SDS011;55824;52.220;21.040;2023-12-14T00:43:55;17.10;;;15.30;;
39882;SDS011;55824;52.220;21.040;2023-12-14T00:46:21;16.85;;;15.13;;
39882;SDS011;55824;52.220;21.040;2023-12-14T00:48:47;17.08;;;15.27;;
39882;SDS011;55824;52.220;21.040;2023-12-14T00:51:13;15.45;;;13.85;;
39882;SDS011;55824;52.220;21.040;2023-12-14T00:53:39;15.40;;;13.80;;
39882;SDS011;55824;52.220;21.040;2023-12-14T00:56:07;15.30;;;13.70;;
39882;SDS011;55824;52.220;21.040;2023-12-14T00:58:33;14.85;;;13.25;;
39882;SDS011;55824;52.220;21.040;2023-12-14T01:00:59;15.10;;;13.60;;
39882;SDS011;55824;52.220;21.040;2023-12-14T01:03:25;15.40;;;13.80;;
39882;SDS011;55824;52.220;21.040;2023-12-14T01:05:51;15.35;;;13.75;;
39882;SDS011;55824;52.220;21.040;2023-12-14T01:08:17;15.55;;;13.95;;
39882;SDS011;55824;52.220;21.040;2023-12-14T01:10:43;14.55;;;13.00;;
39882;SDS011;55824;52.220;21.040;2023-12-14T01:13:09;14.05;;;12.65;;
39882;SDS011;55824;52.220;21.040;2023-12-14T01:15:35;15.82;;;13.95;;
39882;SDS011;55824;52.220;21.040;2023-12-14T01:18:01;15.20;;;13.60;;
39882;SDS011;55824;52.220;21.040;2023-12-14T01:20:27;14.15;;;12.75;;
39882;SDS011;55824;52.220;21.040;2023-12-14T01:22:53;14.45;;;12.90;;
39882;SDS011;55824;52.220;21.040;2023-12-14T01:25:19;14.60;;;13.15;;
39882;SDS011;55824;52.220;21.040;2023-12-14T01:27:44;15.38;;;13.77;;
39882;SDS011;55824;52.220;21.040;2023-12-14T01:30:10;14.30;;;12.80;;
39882;SDS011;55824;52.220;21.040;2023-12-14T01:32:37;14.80;;;13.23;;
39882;SDS011;55824;52.220;21.040;2023-12-14T01:35:03;13.18;;;11.88;;
39882;SDS011;55824;52.220;21.040;2023-12-14T01:37:29;14.93;;;13.35;;
39882;SDS011;55824;52.220;21.040;2023-12-14T01:39:55;13.68;;;12.25;;
39882;SDS011;55824;52.220;21.040;2023-12-14T01:42:21;14.63;;;11.88;;
39882;SDS011;55824;52.220;21.040;2023-12-14T01:44:47;14.80;;;13.27;;
39882;SDS011;55824;52.220;21.040;2023-12-14T01:47:13;14.43;;;12.85;;
39882;SDS011;55824;52.220;21.040;2023-12-14T01:49:39;13.80;;;12.38;;
39882;SDS011;55824;52.220;21.040;2023-12-14T01:52:06;14.02;;;12.50;;
39882;SDS011;55824;52.220;21.040;2023-12-14T01:54:32;14.27;;;12.50;;
39882;SDS011;55824;52.220;21.040;2023-12-14T01:56:58;14.38;;;12.88;;
39882;SDS011;55824;52.220;21.040;2023-12-14T01:59:25;13.85;;;12.45;;
39882;SDS011;55824;52.220;21.040;2023-12-14T02:01:54;13.45;;;12.02;;
39882;SDS011;55824;52.220;21.040;2023-12-14T02:04:22;14.15;;;12.65;;
39882;SDS011;55824;52.220;21.040;2023-12-14T02:06:48;13.85;;;12.43;;
39882;SDS011;55824;52.220;21.040;2023-12-14T02:09:14;14.18;;;12.75;;
39882;SDS011;55824;52.220;21.040;2023-12-14T02:11:40;14.07;;;12.52;;
39882;SDS011;55824;52.220;21.040;2023-12-14T02:14:06;14.32;;;12.93;;
39882;SDS011;55824;52.220;21.040;2023-12-14T02:16:34;13.15;;;11.75;;
39882;SDS011;55824;52.220;21.040;2023-12-14T02:19:03;15.20;;;12.82;;
39882;SDS011;55824;52.220;21.040;2023-12-14T02:21:29;13.05;;;11.45;;
39882;SDS011;55824;52.220;21.040;2023-12-14T02:23:55;12.18;;;10.65;;
39882;SDS011;55824;52.220;21.040;2023-12-14T02:26:21;13.30;;;11.63;;
39882;SDS011;55824;52.220;21.040;2023-12-14T02:28:47;13.48;;;11.90;;
39882;SDS011;55824;52.220;21.040;2023-12-14T02:31:13;13.48;;;11.95;;
39882;SDS011;55824;52.220;21.040;2023-12-14T02:33:39;13.70;;;12.10;;
39882;SDS011;55824;52.220;21.040;2023-12-14T02:36:05;12.95;;;11.65;;
39882;SDS011;55824;52.220;21.040;2023-12-14T02:38:31;12.65;;;11.20;;
39882;SDS011;55824;52.220;21.040;2023-12-14T02:40:58;13.93;;;12.25;;
39882;SDS011;55824;52.220;21.040;2023-12-14T02:43:24;14.23;;;12.32;;
39882;SDS011;55824;52.220;21.040;2023-12-14T02:45:50;13.05;;;11.35;;
39882;SDS011;55824;52.220;21.040;2023-12-14T02:48:16;15.05;;;12.95;;
39882;SDS011;55824;52.220;21.040;2023-12-14T02:50:42;13.00;;;11.25;;
39882;SDS011;55824;52.220;21.040;2023-12-14T02:53:09;13.02;;;11.63;;
39882;SDS011;55824;52.220;21.040;2023-12-14T02:55:35;14.73;;;13.18;;
39882;SDS011;55824;52.220;21.040;2023-12-14T02:58:01;15.98;;;13.75;;
39882;SDS011;55824;52.220;21.040;2023-12-14T03:00:27;17.17;;;13.75;;
39882;SDS011;55824;52.220;21.040;2023-12-14T03:02:53;16.80;;;14.30;;
39882;SDS011;55824;52.220;21.040;2023-12-14T03:05:19;15.45;;;13.45;;
39882;SDS011;55824;52.220;21.040;2023-12-14T03:07:45;15.88;;;14.07;;
39882;SDS011;55824;52.220;21.040;2023-12-14T03:10:11;16.35;;;13.70;;
39882;SDS011;55824;52.220;21.040;2023-12-14T03:12:37;15.90;;;13.48;;
39882;SDS011;55824;52.220;21.040;2023-12-14T03:15:03;17.23;;;15.07;;
39882;SDS011;55824;52.220;21.040;2023-12-14T03:17:29;16.77;;;14.80;;
39882;SDS011;55824;52.220;21.040;2023-12-14T03:19:55;16.83;;;14.10;;
39882;SDS011;55824;52.220;21.040;2023-12-14T03:22:21;16.48;;;13.88;;
39882;SDS011;55824;52.220;21.040;2023-12-14T03:24:47;15.70;;;13.93;;
39882;SDS011;55824;52.220;21.040;2023-12-14T03:27:13;15.85;;;12.88;;
39882;SDS011;55824;52.220;21.040;2023-12-14T03:29:39;15.50;;;12.95;;
39882;SDS011;55824;52.220;21.040;2023-12-14T03:32:05;17.10;;;13.93;;
39882;SDS011;55824;52.220;21.040;2023-12-14T03:34:31;16.05;;;13.80;;
39882;SDS011;55824;52.220;21.040;2023-12-14T03:36:57;14.50;;;12.82;;
39882;SDS011;55824;52.220;21.040;2023-12-14T03:39:23;16.30;;;13.88;;
39882;SDS011;55824;52.220;21.040;2023-12-14T03:41:49;15.07;;;13.35;;
39882;SDS011;55824;52.220;21.040;2023-12-14T03:44:15;14.25;;;12.75;;
39882;SDS011;55824;52.220;21.040;2023-12-14T03:46:41;16.20;;;14.00;;
39882;SDS011;55824;52.220;21.040;2023-12-14T03:49:07;16.13;;;13.77;;
39882;SDS011;55824;52.220;21.040;2023-12-14T03:51:34;16.70;;;13.23;;
39882;SDS011;55824;52.220;21.040;2023-12-14T03:54:00;15.18;;;13.57;;
39882;SDS011;55824;52.220;21.040;2023-12-14T03:56:26;15.20;;;13.60;;
39882;SDS011;55824;52.220;21.040;2023-12-14T03:58:52;15.05;;;13.10;;
39882;SDS011;55824;52.220;21.040;2023-12-14T04:01:18;14.80;;;12.98;;
39882;SDS011;55824;52.220;21.040;2023-12-14T04:03:44;14.95;;;13.18;;
39882;SDS011;55824;52.220;21.040;2023-12-14T04:06:11;15.48;;;13.18;;
39882;SDS011;55824;52.220;21.040;2023-12-14T04:08:37;15.93;;;13.35;;
39882;SDS011;55824;52.220;21.040;2023-12-14T04:11:04;16.75;;;14.15;;
39882;SDS011;55824;52.220;21.040;2023-12-14T04:13:30;15.82;;;13.98;;
39882;SDS011;55824;52.220;21.040;2023-12-14T04:15:56;15.05;;;13.45;;
39882;SDS011;55824;52.220;21.040;2023-12-14T04:18:22;16.70;;;13.82;;
39882;SDS011;55824;52.220;21.040;2023-12-14T04:20:48;17.38;;;14.80;;
39882;SDS011;55824;52.220;21.040;2023-12-14T04:23:14;16.15;;;13.65;;
39882;SDS011;55824;52.220;21.040;2023-12-14T04:25:40;16.38;;;13.82;;
39882;SDS011;55824;52.220;21.040;2023-12-14T04:28:06;15.32;;;13.73;;
39882;SDS011;55824;52.220;21.040;2023-12-14T04:30:32;16.92;;;13.93;;
39882;SDS011;55824;52.220;21.040;2023-12-14T04:32:58;16.48;;;14.20;;
39882;SDS011;55824;52.220;21.040;2023-12-14T04:35:24;14.55;;;12.88;;
39882;SDS011;55824;52.220;21.040;2023-12-14T04:37:50;14.75;;;12.82;;
39882;SDS011;55824;52.220;21.040;2023-12-14T04:40:16;14.57;;;12.45;;
39882;SDS011;55824;52.220;21.040;2023-12-14T04:42:42;15.70;;;13.27;;
39882;SDS011;55824;52.220;21.040;2023-12-14T04:45:08;16.20;;;13.85;;
39882;SDS011;55824;52.220;21.040;2023-12-14T04:47:34;16.30;;;13.50;;
39882;SDS011;55824;52.220;21.040;2023-12-14T04:50:01;15.32;;;13.40;;
39882;SDS011;55824;52.220;21.040;2023-12-14T04:52:27;14.70;;;12.88;;
39882;SDS011;55824;52.220;21.040;2023-12-14T04:54:54;17.15;;;13.68;;
39882;SDS011;55824;52.220;21.040;2023-12-14T04:57:20;15.13;;;12.98;;
39882;SDS011;55824;52.220;21.040;2023-12-14T04:59:46;15.82;;;13.43;;
39882;SDS011;55824;52.220;21.040;2023-12-14T05:02:11;15.30;;;13.50;;
39882;SDS011;55824;52.220;21.040;2023-12-14T05:04:37;17.35;;;13.77;;
39882;SDS011;55824;52.220;21.040;2023-12-14T05:07:03;14.77;;;12.23;;
39882;SDS011;55824;52.220;21.040;2023-12-14T05:09:30;14.82;;;13.18;;
39882;SDS011;55824;52.220;21.040;2023-12-14T05:11:55;16.10;;;13.40;;
39882;SDS011;55824;52.220;21.040;2023-12-14T05:14:21;15.55;;;13.48;;
39882;SDS011;55824;52.220;21.040;2023-12-14T05:16:48;14.60;;;12.15;;
39882;SDS011;55824;52.220;21.040;2023-12-14T05:19:14;15.43;;;13.32;;
39882;SDS011;55824;52.220;21.040;2023-12-14T05:21:40;17.45;;;14.00;;
39882;SDS011;55824;52.220;21.040;2023-12-14T05:24:06;15.98;;;14.27;;
39882;SDS011;55824;52.220;21.040;2023-12-14T05:26:32;17.08;;;13.55;;
39882;SDS011;55824;52.220;21.040;2023-12-14T05:28:58;16.83;;;13.82;;
39882;SDS011;55824;52.220;21.040;2023-12-14T05:31:24;16.23;;;13.68;;
39882;SDS011;55824;52.220;21.040;2023-12-14T05:33:50;15.40;;;13.63;;
39882;SDS011;55824;52.220;21.040;2023-12-14T05:36:16;14.70;;;13.00;;
39882;SDS011;55824;52.220;21.040;2023-12-14T05:38:42;16.35;;;13.15;;
39882;SDS011;55824;52.220;21.040;2023-12-14T05:41:08;15.30;;;12.98;;
39882;SDS011;55824;52.220;21.040;2023-12-14T05:43:35;14.73;;;12.77;;
39882;SDS011;55824;52.220;21.040;2023-12-14T05:46:01;16.08;;;13.00;;
39882;SDS011;55824;52.220;21.040;2023-12-14T05:48:27;16.05;;;13.40;;
39882;SDS011;55824;52.220;21.040;2023-12-14T05:50:53;15.70;;;12.90;;
39882;SDS011;55824;52.220;21.040;2023-12-14T05:53:19;16.05;;;13.38;;
39882;SDS011;55824;52.220;21.040;2023-12-14T05:55:45;15.32;;;13.13;;
39882;SDS011;55824;52.220;21.040;2023-12-14T05:58:11;15.27;;;13.18;;
39882;SDS011;55824;52.220;21.040;2023-12-14T06:00:37;15.77;;;13.13;;
39882;SDS011;55824;52.220;21.040;2023-12-14T06:03:04;14.00;;;12.30;;
39882;SDS011;55824;52.220;21.040;2023-12-14T06:05:30;15.05;;;13.38;;
39882;SDS011;55824;52.220;21.040;2023-12-14T06:07:56;15.57;;;13.30;;
39882;SDS011;55824;52.220;21.040;2023-12-14T06:10:22;15.73;;;13.52;;
39882;SDS011;55824;52.220;21.040;2023-12-14T06:12:48;15.85;;;12.80;;
39882;SDS011;55824;52.220;21.040;2023-12-14T06:15:14;15.40;;;13.05;;
39882;SDS011;55824;52.220;21.040;2023-12-14T06:17:41;15.27;;;12.98;;
39882;SDS011;55824;52.220;21.040;2023-12-14T06:20:07;15.82;;;11.88;;
39882;SDS011;55824;52.220;21.040;2023-12-14T06:22:35;14.57;;;12.93;;
39882;SDS011;55824;52.220;21.040;2023-12-14T06:25:02;15.68;;;13.02;;
39882;SDS011;55824;52.220;21.040;2023-12-14T06:27:31;14.38;;;12.63;;
39882;SDS011;55824;52.220;21.040;2023-12-14T06:29:57;14.95;;;12.18;;
39882;SDS011;55824;52.220;21.040;2023-12-14T06:32:23;14.20;;;12.27;;
39882;SDS011;55824;52.220;21.040;2023-12-14T06:34:49;15.65;;;12.85;;
39882;SDS011;55824;52.220;21.040;2023-12-14T06:37:15;15.00;;;13.07;;
39882;SDS011;55824;52.220;21.040;2023-12-14T06:39:41;16.02;;;13.90;;
39882;SDS011;55824;52.220;21.040;2023-12-14T06:42:07;16.67;;;13.38;;
39882;SDS011;55824;52.220;21.040;2023-12-14T06:44:33;16.25;;;13.50;;
39882;SDS011;55824;52.220;21.040;2023-12-14T06:47:00;15.38;;;13.18;;
39882;SDS011;55824;52.220;21.040;2023-12-14T06:49:26;15.70;;;13.85;;
39882;SDS011;55824;52.220;21.040;2023-12-14T06:51:52;15.50;;;12.73;;
39882;SDS011;55824;52.220;21.040;2023-12-14T06:54:18;17.33;;;13.82;;
39882;SDS011;55824;52.220;21.040;2023-12-14T06:56:44;16.38;;;13.35;;
39882;SDS011;55824;52.220;21.040;2023-12-14T06:59:10;16.40;;;13.32;;
39882;SDS011;55824;52.220;21.040;2023-12-14T07:01:36;16.77;;;13.43;;
39882;SDS011;55824;52.220;21.040;2023-12-14T07:04:02;17.17;;;13.38;;
39882;SDS011;55824;52.220;21.040;2023-12-14T07:06:28;16.60;;;14.00;;
39882;SDS011;55824;52.220;21.040;2023-12-14T07:08:54;16.45;;;13.95;;
39882;SDS011;55824;52.220;21.040;2023-12-14T07:11:20;15.98;;;13.90;;
39882;SDS011;55824;52.220;21.040;2023-12-14T07:13:46;14.90;;;13.30;;
39882;SDS011;55824;52.220;21.040;2023-12-14T07:16:12;14.85;;;13.13;;
39882;SDS011;55824;52.220;21.040;2023-12-14T07:18:39;15.38;;;12.45;;
39882;SDS011;55824;52.220;21.040;2023-12-14T07:21:06;15.27;;;12.90;;
39882;SDS011;55824;52.220;21.040;2023-12-14T07:23:32;15.48;;;13.65;;
39882;SDS011;55824;52.220;21.040;2023-12-14T07:25:58;15.68;;;13.13;;
39882;SDS011;55824;52.220;21.040;2023-12-14T07:28:24;15.27;;;13.07;;
39882;SDS011;55824;52.220;21.040;2023-12-14T07:30:50;16.48;;;13.70;;
39882;SDS011;55824;52.220;21.040;2023-12-14T07:33:16;14.55;;;13.00;;
39882;SDS011;55824;52.220;21.040;2023-12-14T07:35:43;15.88;;;13.80;;
39882;SDS011;55824;52.220;21.040;2023-12-14T07:38:09;15.35;;;13.35;;
39882;SDS011;55824;52.220;21.040;2023-12-14T07:40:35;14.45;;;12.95;;
39882;SDS011;55824;52.220;21.040;2023-12-14T07:43:03;14.15;;;12.65;;
39882;SDS011;55824;52.220;21.040;2023-12-14T07:45:29;16.35;;;13.90;;
39882;SDS011;55824;52.220;21.040;2023-12-14T07:47:55;16.40;;;13.02;;
39882;SDS011;55824;52.220;21.040;2023-12-14T07:50:21;14.20;;;12.30;;
39882;SDS011;55824;52.220;21.040;2023-12-14T07:52:47;15.38;;;12.73;;
39882;SDS011;55824;52.220;21.040;2023-12-14T07:55:13;14.65;;;12.30;;
39882;SDS011;55824;52.220;21.040;2023-12-14T07:57:39;14.45;;;11.50;;
39882;SDS011;55824;52.220;21.040;2023-12-14T08:00:05;14.90;;;11.70;;
39882;SDS011;55824;52.220;21.040;2023-12-14T08:02:33;13.65;;;11.98;;
39882;SDS011;55824;52.220;21.040;2023-12-14T08:04:59;13.85;;;11.95;;
39882;SDS011;55824;52.220;21.040;2023-12-14T08:07:25;14.48;;;12.27;;
39882;SDS011;55824;52.220;21.040;2023-12-14T08:09:54;13.52;;;11.65;;
39882;SDS011;55824;52.220;21.040;2023-12-14T08:12:20;13.93;;;11.65;;
39882;SDS011;55824;52.220;21.040;2023-12-14T08:14:47;13.10;;;11.38;;
39882;SDS011;55824;52.220;21.040;2023-12-14T08:17:13;12.95;;;11.55;;
39882;SDS011;55824;52.220;21.040;2023-12-14T08:19:39;15.43;;;12.75;;
39882;SDS011;55824;52.220;21.040;2023-12-14T08:22:05;13.43;;;11.65;;
39882;SDS011;55824;52.220;21.040;2023-12-14T08:24:32;13.00;;;11.45;;
39882;SDS011;55824;52.220;21.040;2023-12-14T08:26:58;13.93;;;11.85;;
39882;SDS011;55824;52.220;21.040;2023-12-14T08:29:24;13.25;;;11.63;;
39882;SDS011;55824;52.220;21.040;2023-12-14T08:31:50;13.45;;;11.55;;
39882;SDS011;55824;52.220;21.040;2023-12-14T08:34:16;13.90;;;11.70;;
39882;SDS011;55824;52.220;21.040;2023-12-14T08:36:42;12.40;;;11.05;;
39882;SDS011;55824;52.220;21.040;2023-12-14T08:39:08;12.32;;;10.52;;
39882;SDS011;55824;52.220;21.040;2023-12-14T08:41:34;11.70;;;10.07;;
39882;SDS011;55824;52.220;21.040;2023-12-14T08:44:00;11.50;;;10.30;;
39882;SDS011;55824;52.220;21.040;2023-12-14T08:46:26;11.05;;;9.85;;
39882;SDS011;55824;52.220;21.040;2023-12-14T08:48:52;12.43;;;10.15;;
39882;SDS011;55824;52.220;21.040;2023-12-14T08:51:18;12.20;;;10.43;;
39882;SDS011;55824;52.220;21.040;2023-12-14T08:53:45;11.60;;;10.40;;
39882;SDS011;55824;52.220;21.040;2023-12-14T08:56:11;12.25;;;10.90;;
39882;SDS011;55824;52.220;21.040;2023-12-14T08:58:37;13.75;;;11.07;;
39882;SDS011;55824;52.220;21.040;2023-12-14T09:01:03;11.98;;;10.77;;
39882;SDS011;55824;52.220;21.040;2023-12-14T09:03:29;13.40;;;11.98;;
39882;SDS011;55824;52.220;21.040;2023-12-14T09:05:55;11.95;;;10.07;;
39882;SDS011;55824;52.220;21.040;2023-12-14T09:08:23;13.70;;;11.15;;
39882;SDS011;55824;52.220;21.040;2023-12-14T09:10:49;13.73;;;12.13;;
39882;SDS011;55824;52.220;21.040;2023-12-14T09:13:15;12.35;;;10.85;;
39882;SDS011;55824;52.220;21.040;2023-12-14T09:15:41;12.52;;;11.02;;
39882;SDS011;55824;52.220;21.040;2023-12-14T09:18:07;11.93;;;10.55;;
39882;SDS011;55824;52.220;21.040;2023-12-14T09:20:33;11.88;;;10.63;;
39882;SDS011;55824;52.220;21.040;2023-12-14T09:23:00;11.63;;;10.43;;
39882;SDS011;55824;52.220;21.040;2023-12-14T09:25:26;13.15;;;11.00;;
39882;SDS011;55824;52.220;21.040;2023-12-14T09:27:52;11.55;;;10.13;;
39882;SDS011;55824;52.220;21.040;2023-12-14T09:30:18;12.13;;;10.45;;
39882;SDS011;55824;52.220;21.040;2023-12-14T09:32:44;11.30;;;10.10;;
39882;SDS011;55824;52.220;21.040;2023-12-14T09:35:11;11.50;;;10.30;;
39882;SDS011;55824;52.220;21.040;2023-12-14T09:37:37;11.43;;;9.80;;
39882;SDS011;55824;52.220;21.040;2023-12-14T09:40:03;12.95;;;10.35;;
39882;SDS011;55824;52.220;21.040;2023-12-14T09:42:29;13.88;;;10.55;;
39882;SDS011;55824;52.220;21.040;2023-12-14T09:45:01;11.98;;;9.88;;
39882;SDS011;55824;52.220;21.040;2023-12-14T09:47:27;11.68;;;9.95;;
39882;SDS011;55824;52.220;21.040;2023-12-14T09:49:53;12.10;;;10.15;;
39882;SDS011;55824;52.220;21.040;2023-12-14T09:52:19;11.25;;;9.98;;
39882;SDS011;55824;52.220;21.040;2023-12-14T09:54:45;10.48;;;9.38;;
39882;SDS011;55824;52.220;21.040;2023-12-14T09:57:11;11.40;;;9.43;;
39882;SDS011;55824;52.220;21.040;2023-12-14T09:59:37;10.95;;;9.85;;
39882;SDS011;55824;52.220;21.040;2023-12-14T10:02:10;10.65;;;9.55;;
39882;SDS011;55824;52.220;21.040;2023-12-14T10:04:36;9.77;;;8.02;;
39882;SDS011;55824;52.220;21.040;2023-12-14T10:07:02;9.23;;;8.20;;
39882;SDS011;55824;52.220;21.040;2023-12-14T10:12:04;9.30;;;8.35;;
39882;SDS011;55824;52.220;21.040;2023-12-14T10:14:31;9.65;;;7.82;;
39882;SDS011;55824;52.220;21.040;2023-12-14T10:16:57;9.38;;;8.15;;
39882;SDS011;55824;52.220;21.040;2023-12-14T10:19:23;8.52;;;7.55;;
39882;SDS011;55824;52.220;21.040;2023-12-14T10:21:49;8.32;;;7.53;;
39882;SDS011;55824;52.220;21.040;2023-12-14T10:24:16;8.57;;;7.68;;
39882;SDS011;55824;52.220;21.040;2023-12-14T10:26:44;9.40;;;7.70;;
39882;SDS011;55824;52.220;21.040;2023-12-14T10:29:10;9.77;;;7.90;;
39882;SDS011;55824;52.220;21.040;2023-12-14T10:31:36;9.30;;;7.57;;
39882;SDS011;55824;52.220;21.040;2023-12-14T10:34:06;10.10;;;8.27;;
39882;SDS011;55824;52.220;21.040;2023-12-14T10:36:32;8.80;;;7.75;;
39882;SDS011;55824;52.220;21.040;2023-12-14T10:38:59;8.70;;;7.55;;
39882;SDS011;55824;52.220;21.040;2023-12-14T10:41:25;10.13;;;7.93;;
39882;SDS011;55824;52.220;21.040;2023-12-14T10:43:55;11.15;;;7.60;;
39882;SDS011;55824;52.220;21.040;2023-12-14T10:46:21;11.07;;;8.52;;
39882;SDS011;55824;52.220;21.040;2023-12-14T10:48:49;9.02;;;7.75;;
39882;SDS011;55824;52.220;21.040;2023-12-14T10:51:16;10.13;;;8.30;;
39882;SDS011;55824;52.220;21.040;2023-12-14T10:53:43;10.30;;;8.55;;
39882;SDS011;55824;52.220;21.040;2023-12-14T10:56:12;9.63;;;8.10;;
39882;SDS011;55824;52.220;21.040;2023-12-14T11:01:14;10.07;;;8.43;;
39882;SDS011;55824;52.220;21.040;2023-12-14T11:03:41;8.68;;;7.43;;
39882;SDS011;55824;52.220;21.040;2023-12-14T11:08:53;9.10;;;7.75;;
39882;SDS011;55824;52.220;21.040;2023-12-14T11:11:22;9.93;;;8.27;;
39882;SDS011;55824;52.220;21.040;2023-12-14T11:13:52;8.23;;;7.28;;
39882;SDS011;55824;52.220;21.040;2023-12-14T11:16:21;8.80;;;7.43;;
39882;SDS011;55824;52.220;21.040;2023-12-14T11:18:47;8.50;;;7.45;;
39882;SDS011;55824;52.220;21.040;2023-12-14T11:21:19;9.57;;;7.57;;
39882;SDS011;55824;52.220;21.040;2023-12-14T11:23:47;9.27;;;7.75;;
39882;SDS011;55824;52.220;21.040;2023-12-14T11:26:20;10.18;;;8.82;;
39882;SDS011;55824;52.220;21.040;2023-12-14T11:28:47;9.13;;;7.45;;
39882;SDS011;55824;52.220;21.040;2023-12-14T11:31:14;8.73;;;7.82;;
39882;SDS011;55824;52.220;21.040;2023-12-14T11:33:40;9.73;;;7.97;;
39882;SDS011;55824;52.220;21.040;2023-12-14T11:36:06;9.82;;;7.55;;
39882;SDS011;55824;52.220;21.040;2023-12-14T11:38:33;9.38;;;7.72;;
39882;SDS011;55824;52.220;21.040;2023-12-14T11:41:00;9.52;;;7.68;;
39882;SDS011;55824;52.220;21.040;2023-12-14T11:43:27;8.98;;;7.97;;
39882;SDS011;55824;52.220;21.040;2023-12-14T11:45:53;8.45;;;7.40;;
39882;SDS011;55824;52.220;21.040;2023-12-14T11:48:20;8.80;;;7.65;;
39882;SDS011;55824;52.220;21.040;2023-12-14T11:50:46;9.82;;;8.25;;
39882;SDS011;55824;52.220;21.040;2023-12-14T11:53:13;9.57;;;7.60;;
39882;SDS011;55824;52.220;21.040;2023-12-14T11:55:40;9.48;;;7.40;;
39882;SDS011;55824;52.220;21.040;2023-12-14T11:58:06;9.02;;;7.63;;
39882;SDS011;55824;52.220;21.040;2023-12-14T12:00:33;8.57;;;7.32;;
39882;SDS011;55824;52.220;21.040;2023-12-14T12:05:41;10.30;;;8.55;;
39882;SDS011;55824;52.220;21.040;2023-12-14T12:08:08;9.88;;;8.68;;
39882;SDS011;55824;52.220;21.040;2023-12-14T12:10:35;10.35;;;8.20;;
39882;SDS011;55824;52.220;21.040;2023-12-14T12:13:01;9.60;;;8.00;;
39882;SDS011;55824;52.220;21.040;2023-12-14T12:15:28;10.00;;;8.75;;
39882;SDS011;55824;52.220;21.040;2023-12-14T12:17:54;10.32;;;8.70;;
39882;SDS011;55824;52.220;21.040;2023-12-14T12:20:20;9.25;;;8.13;;
39882;SDS011;55824;52.220;21.040;2023-12-14T12:22:46;10.07;;;8.18;;
39882;SDS011;55824;52.220;21.040;2023-12-14T12:25:12;9.48;;;8.10;;
39882;SDS011;55824;52.220;21.040;2023-12-14T12:27:38;9.27;;;7.70;;
39882;SDS011;55824;52.220;21.040;2023-12-14T12:30:04;9.02;;;7.55;;
39882;SDS011;55824;52.220;21.040;2023-12-14T12:32:30;9.60;;;8.05;;
39882;SDS011;55824;52.220;21.040;2023-12-14T12:34:56;9.15;;;7.65;;
39882;SDS011;55824;52.220;21.040;2023-12-14T12:37:22;12.60;;;8.30;;
39882;SDS011;55824;52.220;21.040;2023-12-14T12:39:48;10.85;;;8.77;;
39882;SDS011;55824;52.220;21.040;2023-12-14T12:42:14;9.48;;;8.30;;
39882;SDS011;55824;52.220;21.040;2023-12-14T12:44:40;8.98;;;7.85;;
39882;SDS011;55824;52.220;21.040;2023-12-14T12:47:06;10.45;;;8.15;;
39882;SDS011;55824;52.220;21.040;2023-12-14T12:49:32;10.73;;;8.30;;
39882;SDS011;55824;52.220;21.040;2023-12-14T12:51:58;9.82;;;8.30;;
39882;SDS011;55824;52.220;21.040;2023-12-14T12:54:24;9.90;;;8.32;;
39882;SDS011;55824;52.220;21.040;2023-12-14T12:56:50;8.82;;;7.93;;
39882;SDS011;55824;52.220;21.040;2023-12-14T12:59:16;9.63;;;8.15;;
39882;SDS011;55824;52.220;21.040;2023-12-14T13:01:42;10.50;;;7.95;;
39882;SDS011;55824;52.220;21.040;2023-12-14T13:04:19;10.48;;;8.07;;
39882;SDS011;55824;52.220;21.040;2023-12-14T13:06:45;11.27;;;8.07;;
39882;SDS011;55824;52.220;21.040;2023-12-14T13:09:13;10.32;;;7.80;;
39882;SDS011;55824;52.220;21.040;2023-12-14T13:11:39;10.20;;;7.20;;
39882;SDS011;55824;52.220;21.040;2023-12-14T13:14:05;9.25;;;7.28;;
39882;SDS011;55824;52.220;21.040;2023-12-14T13:16:33;8.55;;;6.80;;
39882;SDS011;55824;52.220;21.040;2023-12-14T13:18:59;8.75;;;7.20;;
39882;SDS011;55824;52.220;21.040;2023-12-14T13:21:25;8.93;;;6.80;;
39882;SDS011;55824;52.220;21.040;2023-12-14T13:23:51;8.75;;;6.90;;
39882;SDS011;55824;52.220;21.040;2023-12-14T13:26:17;8.05;;;7.25;;
39882;SDS011;55824;52.220;21.040;2023-12-14T13:28:43;9.73;;;7.88;;
39882;SDS011;55824;52.220;21.040;2023-12-14T13:31:09;9.52;;;7.68;;
39882;SDS011;55824;52.220;21.040;2023-12-14T13:33:35;9.80;;;7.97;;
39882;SDS011;55824;52.220;21.040;2023-12-14T13:36:02;9.75;;;7.93;;
39882;SDS011;55824;52.220;21.040;2023-12-14T13:38:28;9.38;;;7.82;;
39882;SDS011;55824;52.220;21.040;2023-12-14T13:40:54;8.57;;;7.43;;
39882;SDS011;55824;52.220;21.040;2023-12-14T13:43:20;10.80;;;8.07;;
39882;SDS011;55824;52.220;21.040;2023-12-14T13:45:46;8.68;;;6.90;;
39882;SDS011;55824;52.220;21.040;2023-12-14T13:48:12;9.45;;;7.63;;
39882;SDS011;55824;52.220;21.040;2023-12-14T13:50:38;10.02;;;8.38;;
39882;SDS011;55824;52.220;21.040;2023-12-14T13:53:05;10.50;;;8.75;;
39882;SDS011;55824;52.220;21.040;2023-12-14T13:55:31;11.02;;;8.80;;
39882;SDS011;55824;52.220;21.040;2023-12-14T13:57:57;8.93;;;8.02;;
39882;SDS011;55824;52.220;21.040;2023-12-14T14:00:23;10.10;;;8.30;;
39882;SDS011;55824;52.220;21.040;2023-12-14T14:02:49;9.95;;;8.35;;
39882;SDS011;55824;52.220;21.040;2023-12-14T14:05:15;10.88;;;8.30;;
39882;SDS011;55824;52.220;21.040;2023-12-14T14:07:41;9.07;;;8.05;;
39882;SDS011;55824;52.220;21.040;2023-12-14T14:10:07;9.57;;;8.40;;
39882;SDS011;55824;52.220;21.040;2023-12-14T14:12:33;10.57;;;8.57;;
39882;SDS011;55824;52.220;21.040;2023-12-14T14:14:59;9.32;;;8.32;;
39882;SDS011;55824;52.220;21.040;2023-12-14T14:17:25;9.75;;;8.00;;
39882;SDS011;55824;52.220;21.040;2023-12-14T14:19:51;11.07;;;8.65;;